sensor_id;sensor_type;location;lat;lon;timestamp;pressure;altitude;pressure_sealevel;temperature;humidity
44148;BME280;29810;55.848;37.368;2023-04-06T00:02:25;99817.78;;;3.26;92.91
44148;BME280;29810;55.848;37.368;2023-04-06T00:05:27;99814.34;;;3.24;93.22
44148;BME280;29810;55.848;37.368;2023-04-06T00:08:31;99812.63;;;3.27;92.84
44148;BME280;29810;55.848;37.368;2023-04-06T00:11:32;99815.22;;;3.24;92.93
44148;BME280;29810;55.848;37.368;2023-04-06T00:14:33;99813.50;;;3.23;92.64
44148;BME280;29810;55.848;37.368;2023-04-06T00:17:35;99821.22;;;3.20;92.92
44148;BME280;29810;55.848;37.368;2023-04-06T00:20:36;99824.63;;;3.10;93.85
44148;BME280;29810;55.848;37.368;2023-04-06T00:23:38;99823.75;;;3.05;94.03
44148;BME280;29810;55.848;37.368;2023-04-06T00:26:39;99815.09;;;2.96;94.85
44148;BME280;29810;55.848;37.368;2023-04-06T00:29:41;99826.28;;;2.98;94.23
44148;BME280;29810;55.848;37.368;2023-04-06T00:32:42;99827.09;;;2.87;95.65
44148;BME280;29810;55.848;37.368;2023-04-06T00:35:44;99822.81;;;2.89;95.60
44148;BME280;29810;55.848;37.368;2023-04-06T00:38:45;99815.06;;;2.87;95.25
44148;BME280;29810;55.848;37.368;2023-04-06T00:41:49;99819.34;;;2.80;96.10
44148;BME280;29810;55.848;37.368;2023-04-06T00:44:55;99818.47;;;2.74;96.39
44148;BME280;29810;55.848;37.368;2023-04-06T00:47:57;99819.34;;;2.82;95.89
44148;BME280;29810;55.848;37.368;2023-04-06T00:50:58;99811.63;;;2.84;95.44
44148;BME280;29810;55.848;37.368;2023-04-06T00:54:00;99820.22;;;2.81;95.21
44148;BME280;29810;55.848;37.368;2023-04-06T00:57:04;99822.72;;;2.69;96.05
44148;BME280;29810;55.848;37.368;2023-04-06T01:00:06;99827.84;;;2.59;96.41
44148;BME280;29810;55.848;37.368;2023-04-06T01:03:08;99813.28;;;2.68;96.32
44148;BME280;29810;55.848;37.368;2023-04-06T01:06:10;99820.16;;;2.65;96.28
44148;BME280;29810;55.848;37.368;2023-04-06T01:09:12;99812.38;;;2.62;96.51
44148;BME280;29810;55.848;37.368;2023-04-06T01:12:14;99816.69;;;2.67;96.17
44148;BME280;29810;55.848;37.368;2023-04-06T01:15:16;99808.97;;;2.67;95.84
44148;BME280;29810;55.848;37.368;2023-04-06T01:18:18;99805.53;;;2.64;95.45
44148;BME280;29810;55.848;37.368;2023-04-06T01:21:27;99807.28;;;2.64;94.93
44148;BME280;29810;55.848;37.368;2023-04-06T01:24:29;99807.16;;;2.44;96.50
44148;BME280;29810;55.848;37.368;2023-04-06T01:27:30;99808.00;;;2.41;97.00
44148;BME280;29810;55.848;37.368;2023-04-06T01:30:34;99817.44;;;2.41;96.80
44148;BME280;29810;55.848;37.368;2023-04-06T01:33:35;99811.44;;;2.42;96.91
44148;BME280;29810;55.848;37.368;2023-04-06T01:36:37;99808.84;;;2.39;96.91
44148;BME280;29810;55.848;37.368;2023-04-06T01:39:38;99807.06;;;2.30;97.30
44148;BME280;29810;55.848;37.368;2023-04-06T01:42:41;99804.47;;;2.28;97.55
44148;BME280;29810;55.848;37.368;2023-04-06T01:45:44;99820.75;;;2.26;97.60
44148;BME280;29810;55.848;37.368;2023-04-06T01:48:45;99820.75;;;2.23;97.67
44148;BME280;29810;55.848;37.368;2023-04-06T01:51:48;99819.84;;;2.19;97.87
44148;BME280;29810;55.848;37.368;2023-04-06T01:54:50;99819.03;;;2.23;97.46
44148;BME280;29810;55.848;37.368;2023-04-06T01:57:51;99812.97;;;2.15;97.86
44148;BME280;29810;55.848;37.368;2023-04-06T02:00:53;99828.41;;;2.12;97.76
44148;BME280;29810;55.848;37.368;2023-04-06T02:03:55;99812.91;;;2.09;98.00
44148;BME280;29810;55.848;37.368;2023-04-06T02:06:56;99814.66;;;2.10;98.22
44148;BME280;29810;55.848;37.368;2023-04-06T02:09:58;99814.59;;;1.99;98.96
44148;BME280;29810;55.848;37.368;2023-04-06T02:13:00;99821.34;;;1.89;99.06
44148;BME280;29810;55.848;37.368;2023-04-06T02:16:02;99822.25;;;1.96;99.05
44148;BME280;29810;55.848;37.368;2023-04-06T02:19:03;99807.75;;;2.03;98.49
44148;BME280;29810;55.848;37.368;2023-04-06T02:22:05;99809.47;;;2.04;98.14
44148;BME280;29810;55.848;37.368;2023-04-06T02:25:07;99809.38;;;1.90;98.87
44148;BME280;29810;55.848;37.368;2023-04-06T02:28:09;99821.41;;;1.92;99.07
44148;BME280;29810;55.848;37.368;2023-04-06T02:31:10;99821.34;;;1.89;98.89
44148;BME280;29810;55.848;37.368;2023-04-06T02:34:12;99821.41;;;1.97;98.55
44148;BME280;29810;55.848;37.368;2023-04-06T02:37:19;99821.41;;;1.95;98.48
44148;BME280;29810;55.848;37.368;2023-04-06T02:40:21;99828.22;;;1.93;98.37
44148;BME280;29810;55.848;37.368;2023-04-06T02:43:22;99834.25;;;1.94;98.54
44148;BME280;29810;55.848;37.368;2023-04-06T02:46:24;99836.84;;;1.98;98.36
44148;BME280;29810;55.848;37.368;2023-04-06T02:49:25;99834.25;;;1.94;98.20
44148;BME280;29810;55.848;37.368;2023-04-06T02:52:29;99839.41;;;1.94;98.40
44148;BME280;29810;55.848;37.368;2023-04-06T02:55:31;99842.81;;;1.93;98.49
44148;BME280;29810;55.848;37.368;2023-04-06T02:58:32;99846.34;;;2.03;98.02
44148;BME280;29810;55.848;37.368;2023-04-06T03:01:34;99836.06;;;2.07;97.76
44148;BME280;29810;55.848;37.368;2023-04-06T03:04:36;99843.84;;;2.12;97.51
44148;BME280;29810;55.848;37.368;2023-04-06T03:07:39;99838.72;;;2.18;97.17
44148;BME280;29810;55.848;37.368;2023-04-06T03:10:43;99846.53;;;2.30;96.59
44148;BME280;29810;55.848;37.368;2023-04-06T03:13:44;99855.94;;;2.24;96.21
44148;BME280;29810;55.848;37.368;2023-04-06T03:16:46;99859.41;;;2.35;96.24
44148;BME280;29810;55.848;37.368;2023-04-06T03:19:49;99868.03;;;2.39;95.74
44148;BME280;29810;55.848;37.368;2023-04-06T03:22:50;99857.84;;;2.54;95.30
44148;BME280;29810;55.848;37.368;2023-04-06T03:25:53;99863.03;;;2.59;94.48
44148;BME280;29810;55.848;37.368;2023-04-06T03:28:54;99867.28;;;2.60;93.91
44148;BME280;29810;55.848;37.368;2023-04-06T03:31:57;99873.28;;;2.57;93.49
44148;BME280;29810;55.848;37.368;2023-04-06T03:34:58;99868.12;;;2.54;93.30
44148;BME280;29810;55.848;37.368;2023-04-06T03:38:00;99873.31;;;2.60;93.27
44148;BME280;29810;55.848;37.368;2023-04-06T03:41:02;99866.50;;;2.69;93.05
44148;BME280;29810;55.848;37.368;2023-04-06T03:44:04;99877.63;;;2.66;92.37
44148;BME280;29810;55.848;37.368;2023-04-06T03:47:06;99874.28;;;2.76;91.95
44148;BME280;29810;55.848;37.368;2023-04-06T03:50:07;99874.28;;;2.78;91.57
44148;BME280;29810;55.848;37.368;2023-04-06T03:53:09;99874.31;;;2.87;91.75
44148;BME280;29810;55.848;37.368;2023-04-06T03:56:10;99879.53;;;3.04;91.10
44148;BME280;29810;55.848;37.368;2023-04-06T03:59:11;99882.97;;;3.02;90.05
44148;BME280;29810;55.848;37.368;2023-04-06T04:02:13;99892.44;;;3.00;89.57
44148;BME280;29810;55.848;37.368;2023-04-06T04:05:14;99895.91;;;3.11;89.66
44148;BME280;29810;55.848;37.368;2023-04-06T04:08:16;99898.53;;;3.23;89.34
44148;BME280;29810;55.848;37.368;2023-04-06T04:11:17;99887.34;;;3.21;88.43
44148;BME280;29810;55.848;37.368;2023-04-06T04:14:20;99887.37;;;3.30;88.02
44148;BME280;29810;55.848;37.368;2023-04-06T04:17:21;99901.19;;;3.43;88.06
44148;BME280;29810;55.848;37.368;2023-04-06T04:20:22;99901.19;;;3.42;87.96
44148;BME280;29810;55.848;37.368;2023-04-06T04:23:24;99898.66;;;3.57;87.29
44148;BME280;29810;55.848;37.368;2023-04-06T04:26:25;99909.69;;;3.25;87.03
44148;BME280;29810;55.848;37.368;2023-04-06T04:29:27;99906.31;;;3.36;87.01
44148;BME280;29810;55.848;37.368;2023-04-06T04:32:30;99904.66;;;3.52;86.46
44148;BME280;29810;55.848;37.368;2023-04-06T04:35:33;99909.84;;;3.75;85.83
44148;BME280;29810;55.848;37.368;2023-04-06T04:38:34;99905.53;;;3.60;85.61
44148;BME280;29810;55.848;37.368;2023-04-06T04:41:36;99901.25;;;3.70;85.96
44148;BME280;29810;55.848;37.368;2023-04-06T04:44:41;99903.00;;;3.74;85.08
44148;BME280;29810;55.848;37.368;2023-04-06T04:47:43;99904.66;;;3.65;84.63
44148;BME280;29810;55.848;37.368;2023-04-06T04:50:45;99902.09;;;3.65;85.83
44148;BME280;29810;55.848;37.368;2023-04-06T04:53:48;99897.75;;;4.94;80.23
44148;BME280;29810;55.848;37.368;2023-04-06T04:56:50;99894.19;;;7.95;67.96
44148;BME280;29810;55.848;37.368;2023-04-06T04:59:52;99878.50;;;10.55;60.38
44148;BME280;29810;55.848;37.368;2023-04-06T05:02:53;99873.75;;;11.33;53.49
44148;BME280;29810;55.848;37.368;2023-04-06T05:05:56;99889.63;;;10.27;54.21
44148;BME280;29810;55.848;37.368;2023-04-06T05:08:58;99888.94;;;9.83;57.36
44148;BME280;29810;55.848;37.368;2023-04-06T05:12:01;99893.87;;;7.59;62.94
44148;BME280;29810;55.848;37.368;2023-04-06T05:15:04;99911.09;;;5.88;69.72
44148;BME280;29810;55.848;37.368;2023-04-06T05:18:09;99892.25;;;5.69;73.33
44148;BME280;29810;55.848;37.368;2023-04-06T05:21:11;99914.66;;;5.70;73.18
44148;BME280;29810;55.848;37.368;2023-04-06T05:24:13;99915.84;;;5.01;74.95
44148;BME280;29810;55.848;37.368;2023-04-06T05:27:16;99910.69;;;4.90;76.06
44148;BME280;29810;55.848;37.368;2023-04-06T05:30:27;99914.16;;;4.81;77.55
44148;BME280;29810;55.848;37.368;2023-04-06T05:33:32;99914.97;;;4.98;77.10
44148;BME280;29810;55.848;37.368;2023-04-06T05:36:39;99914.00;;;5.34;76.14
44148;BME280;29810;55.848;37.368;2023-04-06T05:39:47;99910.63;;;5.07;76.68
44148;BME280;29810;55.848;37.368;2023-04-06T05:42:59;99916.69;;;5.06;77.12
44148;BME280;29810;55.848;37.368;2023-04-06T05:46:05;99909.75;;;5.16;76.80
44148;BME280;29810;55.848;37.368;2023-04-06T05:49:17;99908.00;;;5.21;76.32
44148;BME280;29810;55.848;37.368;2023-04-06T05:52:23;99922.75;;;4.95;76.85
44148;BME280;29810;55.848;37.368;2023-04-06T05:55:34;99908.87;;;5.13;76.24
44148;BME280;29810;55.848;37.368;2023-04-06T05:58:39;99904.44;;;5.46;76.06
44148;BME280;29810;55.848;37.368;2023-04-06T06:01:47;99908.81;;;5.34;75.46
44148;BME280;29810;55.848;37.368;2023-04-06T06:04:56;99910.34;;;5.67;74.44
44148;BME280;29810;55.848;37.368;2023-04-06T06:07:59;99911.06;;;5.89;74.31
44148;BME280;29810;55.848;37.368;2023-04-06T06:11:09;99914.53;;;5.90;73.53
44148;BME280;29810;55.848;37.368;2023-04-06T06:14:14;99909.25;;;6.10;73.56
44148;BME280;29810;55.848;37.368;2023-04-06T06:17:22;99914.34;;;6.22;72.70
44148;BME280;29810;55.848;37.368;2023-04-06T06:20:28;99916.03;;;6.26;73.05
44148;BME280;29810;55.848;37.368;2023-04-06T06:23:38;99904.81;;;6.24;72.37
44148;BME280;29810;55.848;37.368;2023-04-06T06:26:42;99901.19;;;6.45;72.55
44148;BME280;29810;55.848;37.368;2023-04-06T06:29:52;99908.97;;;6.47;71.56
44148;BME280;29810;55.848;37.368;2023-04-06T06:32:57;99908.97;;;6.47;71.28
44148;BME280;29810;55.848;37.368;2023-04-06T06:36:04;99906.25;;;6.59;70.78
44148;BME280;29810;55.848;37.368;2023-04-06T06:39:09;99908.75;;;6.69;70.54
44148;BME280;29810;55.848;37.368;2023-04-06T06:42:17;99901.25;;;6.41;70.94
44148;BME280;29810;55.848;37.368;2023-04-06T06:45:20;99908.06;;;6.48;71.10
44148;BME280;29810;55.848;37.368;2023-04-06T06:48:27;99907.38;;;6.30;71.72
44148;BME280;29810;55.848;37.368;2023-04-06T06:51:32;99896.75;;;6.58;70.82
44148;BME280;29810;55.848;37.368;2023-04-06T06:54:42;99910.53;;;6.63;69.89
44148;BME280;29810;55.848;37.368;2023-04-06T06:57:55;99900.25;;;6.57;70.33
44148;BME280;29810;55.848;37.368;2023-04-06T07:01:01;99900.13;;;6.65;70.29
44148;BME280;29810;55.848;37.368;2023-04-06T07:04:05;99898.16;;;6.90;69.43
44148;BME280;29810;55.848;37.368;2023-04-06T07:07:15;99903.44;;;6.83;69.14
44148;BME280;29810;55.848;37.368;2023-04-06T07:10:30;99896.19;;;7.09;68.94
44148;BME280;29810;55.848;37.368;2023-04-06T07:13:40;99901.37;;;7.09;67.51
44148;BME280;29810;55.848;37.368;2023-04-06T07:16:47;99898.62;;;7.23;67.52
44148;BME280;29810;55.848;37.368;2023-04-06T07:19:56;99891.66;;;7.28;67.21
44148;BME280;29810;55.848;37.368;2023-04-06T07:22:59;99890.81;;;7.28;67.18
44148;BME280;29810;55.848;37.368;2023-04-06T07:26:09;99897.41;;;7.52;66.87
44148;BME280;29810;55.848;37.368;2023-04-06T07:29:14;99903.44;;;7.54;65.46
44148;BME280;29810;55.848;37.368;2023-04-06T07:32:25;99887.44;;;7.84;65.57
44148;BME280;29810;55.848;37.368;2023-04-06T07:35:31;99888.25;;;7.87;64.70
44148;BME280;29810;55.848;37.368;2023-04-06T07:38:42;99892.25;;;8.08;63.94
44148;BME280;29810;55.848;37.368;2023-04-06T07:41:48;99893.25;;;8.01;63.92
44148;BME280;29810;55.848;37.368;2023-04-06T07:44:56;99882.69;;;8.12;63.87
44148;BME280;29810;55.848;37.368;2023-04-06T07:48:05;99909.47;;;8.16;63.14
44148;BME280;29810;55.848;37.368;2023-04-06T07:51:17;99928.56;;;8.11;62.45
44148;BME280;29810;55.848;37.368;2023-04-06T07:54:22;99895.28;;;8.37;62.85
44148;BME280;29810;55.848;37.368;2023-04-06T07:57:33;99900.53;;;8.32;62.35
44148;BME280;29810;55.848;37.368;2023-04-06T08:00:38;99898.53;;;8.51;61.57
44148;BME280;29810;55.848;37.368;2023-04-06T08:03:46;99913.09;;;8.58;61.38
44148;BME280;29810;55.848;37.368;2023-04-06T08:06:53;99894.28;;;8.47;61.87
44148;BME280;29810;55.848;37.368;2023-04-06T08:10:02;99889.91;;;8.48;61.77
44148;BME280;29810;55.848;37.368;2023-04-06T08:13:10;99893.84;;;8.70;61.53
44148;BME280;29810;55.848;37.368;2023-04-06T08:16:18;99876.03;;;8.95;60.68
44148;BME280;29810;55.848;37.368;2023-04-06T08:19:25;99887.59;;;9.24;59.54
44148;BME280;29810;55.848;37.368;2023-04-06T08:22:36;99876.91;;;9.37;58.28
44148;BME280;29810;55.848;37.368;2023-04-06T08:25:43;99896.69;;;9.45;56.93
44148;BME280;29810;55.848;37.368;2023-04-06T08:28:54;99868.88;;;9.49;58.24
44148;BME280;29810;55.848;37.368;2023-04-06T08:32:01;99889.13;;;9.35;57.31
44148;BME280;29810;55.848;37.368;2023-04-06T08:35:13;99874.78;;;9.56;56.21
44148;BME280;29810;55.848;37.368;2023-04-06T08:38:18;99863.84;;;9.79;56.35
44148;BME280;29810;55.848;37.368;2023-04-06T08:41:29;99864.94;;;10.06;56.17
44148;BME280;29810;55.848;37.368;2023-04-06T08:44:40;99869.63;;;9.92;55.67
44148;BME280;29810;55.848;37.368;2023-04-06T08:47:51;99871.66;;;10.15;54.54
44148;BME280;29810;55.848;37.368;2023-04-06T08:50:59;99873.59;;;10.44;54.89
44148;BME280;29810;55.848;37.368;2023-04-06T08:54:09;99877.78;;;10.50;53.87
44148;BME280;29810;55.848;37.368;2023-04-06T08:57:14;99868.81;;;10.60;53.35
44148;BME280;29810;55.848;37.368;2023-04-06T09:00:22;99852.59;;;10.82;53.20
44148;BME280;29810;55.848;37.368;2023-04-06T09:03:29;99848.84;;;10.92;52.95
44148;BME280;29810;55.848;37.368;2023-04-06T09:06:40;99827.97;;;10.92;52.24
44148;BME280;29810;55.848;37.368;2023-04-06T09:09:45;99863.97;;;10.78;51.51
44148;BME280;29810;55.848;37.368;2023-04-06T09:13:02;99858.34;;;10.93;51.73
44148;BME280;29810;55.848;37.368;2023-04-06T09:16:09;99843.94;;;11.12;51.74
44148;BME280;29810;55.848;37.368;2023-04-06T09:19:19;99852.12;;;11.29;50.69
44148;BME280;29810;55.848;37.368;2023-04-06T09:22:22;99840.09;;;11.23;49.56
44148;BME280;29810;55.848;37.368;2023-04-06T09:25:31;99841.47;;;11.35;50.48
44148;BME280;29810;55.848;37.368;2023-04-06T09:28:45;99842.94;;;11.16;49.72
44148;BME280;29810;55.848;37.368;2023-04-06T09:35:08;99841.03;;;11.51;49.25
44148;BME280;29810;55.848;37.368;2023-04-06T09:38:20;99848.16;;;11.74;48.97
44148;BME280;29810;55.848;37.368;2023-04-06T09:41:34;99856.78;;;11.76;46.91
44148;BME280;29810;55.848;37.368;2023-04-06T09:44:45;99857.88;;;11.69;45.96
44148;BME280;29810;55.848;37.368;2023-04-06T09:47:52;99847.25;;;11.75;46.50
44148;BME280;29810;55.848;37.368;2023-04-06T09:51:04;99837.72;;;12.02;45.46
44148;BME280;29810;55.848;37.368;2023-04-06T09:54:09;99832.63;;;11.98;45.25
44148;BME280;29810;55.848;37.368;2023-04-06T09:57:56;99846.06;;;12.12;44.75
44148;BME280;29810;55.848;37.368;2023-04-06T10:00:57;99834.59;;;12.16;43.79
44148;BME280;29810;55.848;37.368;2023-04-06T10:04:33;99828.09;;;12.28;44.30
44148;BME280;29810;55.848;37.368;2023-04-06T10:07:41;99830.78;;;12.26;43.81
44148;BME280;29810;55.848;37.368;2023-04-06T10:10:53;99832.81;;;12.18;43.51
44148;BME280;29810;55.848;37.368;2023-04-06T10:13:59;99835.69;;;12.11;42.91
44148;BME280;29810;55.848;37.368;2023-04-06T10:17:08;99836.00;;;12.26;42.72
44148;BME280;29810;55.848;37.368;2023-04-06T10:23:33;99835.88;;;12.31;43.52
44148;BME280;29810;55.848;37.368;2023-04-06T10:26:41;99823.13;;;12.22;43.23
44148;BME280;29810;55.848;37.368;2023-04-06T10:29:53;99830.44;;;12.11;43.37
44148;BME280;29810;55.848;37.368;2023-04-06T10:33:12;99831.28;;;12.11;43.30
44148;BME280;29810;55.848;37.368;2023-04-06T10:36:22;99834.22;;;12.29;42.61
44148;BME280;29810;55.848;37.368;2023-04-06T10:39:29;99843.06;;;12.24;42.65
44148;BME280;29810;55.848;37.368;2023-04-06T10:42:37;99834.84;;;12.35;42.53
44148;BME280;29810;55.848;37.368;2023-04-06T10:45:44;99846.66;;;12.22;42.81
44148;BME280;29810;55.848;37.368;2023-04-06T10:48:53;99855.00;;;12.32;43.13
44148;BME280;29810;55.848;37.368;2023-04-06T10:51:59;99837.16;;;12.45;42.28
44148;BME280;29810;55.848;37.368;2023-04-06T10:55:09;99825.53;;;12.53;42.80
44148;BME280;29810;55.848;37.368;2023-04-06T10:58:15;99835.22;;;12.50;42.41
44148;BME280;29810;55.848;37.368;2023-04-06T11:01:24;99825.41;;;12.56;42.80
44148;BME280;29810;55.848;37.368;2023-04-06T11:04:33;99839.00;;;12.41;42.13
44148;BME280;29810;55.848;37.368;2023-04-06T11:07:41;99842.31;;;12.46;42.23
44148;BME280;29810;55.848;37.368;2023-04-06T11:10:45;99854.97;;;12.33;42.16
44148;BME280;29810;55.848;37.368;2023-04-06T11:13:55;99831.38;;;12.35;42.57
44148;BME280;29810;55.848;37.368;2023-04-06T11:16:59;99827.28;;;12.28;42.45
44148;BME280;29810;55.848;37.368;2023-04-06T11:20:10;99822.78;;;12.56;42.36
44148;BME280;29810;55.848;37.368;2023-04-06T11:23:22;99833.87;;;12.63;41.89
44148;BME280;29810;55.848;37.368;2023-04-06T11:26:31;99838.34;;;12.59;42.15
44148;BME280;29810;55.848;37.368;2023-04-06T11:29:42;99814.81;;;12.59;41.73
44148;BME280;29810;55.848;37.368;2023-04-06T11:32:59;99853.97;;;12.63;41.41
44148;BME280;29810;55.848;37.368;2023-04-06T11:36:04;99847.97;;;12.59;41.62
44148;BME280;29810;55.848;37.368;2023-04-06T11:39:12;99821.50;;;12.68;41.59
44148;BME280;29810;55.848;37.368;2023-04-06T11:42:21;99802.91;;;12.76;41.18
44148;BME280;29810;55.848;37.368;2023-04-06T11:45:39;99818.25;;;12.85;41.22
44148;BME280;29810;55.848;37.368;2023-04-06T11:48:46;99802.13;;;12.98;40.89
44148;BME280;29810;55.848;37.368;2023-04-06T11:51:59;99819.47;;;13.00;40.60
44148;BME280;29810;55.848;37.368;2023-04-06T11:55:16;99784.22;;;13.09;40.96
44148;BME280;29810;55.848;37.368;2023-04-06T11:58:26;99799.34;;;13.24;41.04
44148;BME280;29810;55.848;37.368;2023-04-06T12:01:32;99801.50;;;13.13;40.24
44148;BME280;29810;55.848;37.368;2023-04-06T12:04:43;99787.66;;;13.11;40.54
44148;BME280;29810;55.848;37.368;2023-04-06T12:07:49;99787.16;;;13.23;40.45
44148;BME280;29810;55.848;37.368;2023-04-06T12:10:59;99794.94;;;13.25;40.42
44148;BME280;29810;55.848;37.368;2023-04-06T12:14:04;99793.88;;;13.31;40.94
44148;BME280;29810;55.848;37.368;2023-04-06T12:17:15;99775.75;;;13.48;40.36
44148;BME280;29810;55.848;37.368;2023-04-06T12:20:20;99803.78;;;13.46;39.90
44148;BME280;29810;55.848;37.368;2023-04-06T12:23:29;99807.56;;;13.15;39.42
44148;BME280;29810;55.848;37.368;2023-04-06T12:26:33;99788.88;;;13.24;40.90
44148;BME280;29810;55.848;37.368;2023-04-06T12:29:44;99779.66;;;13.38;40.65
44148;BME280;29810;55.848;37.368;2023-04-06T12:32:48;99782.94;;;13.43;40.89
44148;BME280;29810;55.848;37.368;2023-04-06T12:35:58;99795.47;;;13.35;40.32
44148;BME280;29810;55.848;37.368;2023-04-06T12:39:04;99783.22;;;13.37;40.25
44148;BME280;29810;55.848;37.368;2023-04-06T12:42:14;99788.50;;;13.34;40.46
44148;BME280;29810;55.848;37.368;2023-04-06T12:45:20;99798.38;;;13.27;40.60
44148;BME280;29810;55.848;37.368;2023-04-06T12:48:31;99791.91;;;13.14;40.88
44148;BME280;29810;55.848;37.368;2023-04-06T12:51:37;99781.38;;;13.15;40.99
44148;BME280;29810;55.848;37.368;2023-04-06T12:54:44;99782.97;;;13.19;40.35
44148;BME280;29810;55.848;37.368;2023-04-06T12:57:48;99774.97;;;13.22;40.80
44148;BME280;29810;55.848;37.368;2023-04-06T13:00:58;99785.84;;;13.35;40.99
44148;BME280;29810;55.848;37.368;2023-04-06T13:04:07;99786.59;;;13.39;41.15
44148;BME280;29810;55.848;37.368;2023-04-06T13:07:16;99777.50;;;13.25;40.97
44148;BME280;29810;55.848;37.368;2023-04-06T13:10:22;99786.94;;;13.30;41.07
44148;BME280;29810;55.848;37.368;2023-04-06T13:13:31;99781.44;;;13.14;41.54
44148;BME280;29810;55.848;37.368;2023-04-06T13:16:39;99779.56;;;13.17;41.35
44148;BME280;29810;55.848;37.368;2023-04-06T13:19:53;99795.81;;;13.25;40.93
44148;BME280;29810;55.848;37.368;2023-04-06T13:22:59;99763.06;;;13.15;40.99
44148;BME280;29810;55.848;37.368;2023-04-06T13:26:07;99779.13;;;13.06;40.41
44148;BME280;29810;55.848;37.368;2023-04-06T13:29:14;99767.31;;;13.18;41.17
44148;BME280;29810;55.848;37.368;2023-04-06T13:32:20;99769.50;;;13.29;40.99
44148;BME280;29810;55.848;37.368;2023-04-06T13:35:23;99765.72;;;13.37;41.01
44148;BME280;29810;55.848;37.368;2023-04-06T13:38:33;99762.16;;;13.16;40.80
44148;BME280;29810;55.848;37.368;2023-04-06T13:41:37;99771.44;;;13.23;41.24
44148;BME280;29810;55.848;37.368;2023-04-06T13:44:49;99767.63;;;13.10;40.47
44148;BME280;29810;55.848;37.368;2023-04-06T13:47:54;99771.25;;;13.06;41.03
44148;BME280;29810;55.848;37.368;2023-04-06T13:51:09;99762.31;;;13.12;40.95
44148;BME280;29810;55.848;37.368;2023-04-06T13:54:14;99768.88;;;13.00;39.98
44148;BME280;29810;55.848;37.368;2023-04-06T13:57:25;99778.75;;;13.15;39.84
44148;BME280;29810;55.848;37.368;2023-04-06T14:00:32;99762.50;;;13.07;38.86
44148;BME280;29810;55.848;37.368;2023-04-06T14:03:42;99757.03;;;12.89;39.45
44148;BME280;29810;55.848;37.368;2023-04-06T14:06:50;99761.66;;;12.83;39.29
44148;BME280;29810;55.848;37.368;2023-04-06T14:09:57;99760.62;;;12.87;38.47
44148;BME280;29810;55.848;37.368;2023-04-06T14:13:02;99765.59;;;12.71;37.97
44148;BME280;29810;55.848;37.368;2023-04-06T14:16:12;99751.47;;;12.75;38.58
44148;BME280;29810;55.848;37.368;2023-04-06T14:19:18;99752.00;;;12.85;38.33
44148;BME280;29810;55.848;37.368;2023-04-06T14:22:27;99772.41;;;12.75;38.47
44148;BME280;29810;55.848;37.368;2023-04-06T14:25:33;99786.03;;;12.59;37.81
44148;BME280;29810;55.848;37.368;2023-04-06T14:28:42;99772.87;;;12.63;37.45
44148;BME280;29810;55.848;37.368;2023-04-06T14:31:47;99763.88;;;12.46;37.38
44148;BME280;29810;55.848;37.368;2023-04-06T14:34:53;99768.97;;;12.49;37.74
44148;BME280;29810;55.848;37.368;2023-04-06T14:38:00;99789.13;;;12.22;36.92
44148;BME280;29810;55.848;37.368;2023-04-06T14:41:08;99763.34;;;12.11;36.73
44148;BME280;29810;55.848;37.368;2023-04-06T14:44:17;99768.03;;;12.26;36.70
44148;BME280;29810;55.848;37.368;2023-04-06T14:47:27;99807.09;;;12.31;35.78
44148;BME280;29810;55.848;37.368;2023-04-06T14:50:33;99763.56;;;12.30;36.00
44148;BME280;29810;55.848;37.368;2023-04-06T14:53:41;99770.38;;;12.34;36.95
44148;BME280;29810;55.848;37.368;2023-04-06T14:56:49;99767.59;;;12.14;36.08
44148;BME280;29810;55.848;37.368;2023-04-06T14:59:59;99777.72;;;12.24;36.62
44148;BME280;29810;55.848;37.368;2023-04-06T15:03:06;99784.06;;;12.17;36.50
44148;BME280;29810;55.848;37.368;2023-04-06T15:06:19;99793.88;;;11.82;36.47
44148;BME280;29810;55.848;37.368;2023-04-06T15:09:25;99776.41;;;11.84;36.20
44148;BME280;29810;55.848;37.368;2023-04-06T15:12:35;99781.34;;;11.93;36.52
44148;BME280;29810;55.848;37.368;2023-04-06T15:15:42;99787.16;;;11.75;36.23
44148;BME280;29810;55.848;37.368;2023-04-06T15:18:54;99761.09;;;11.47;36.63
44148;BME280;29810;55.848;37.368;2023-04-06T15:21:59;99785.00;;;11.61;36.58
44148;BME280;29810;55.848;37.368;2023-04-06T15:25:10;99801.72;;;11.55;36.00
44148;BME280;29810;55.848;37.368;2023-04-06T15:28:21;99792.69;;;11.37;36.18
44148;BME280;29810;55.848;37.368;2023-04-06T15:31:32;99793.72;;;11.32;36.39
44148;BME280;29810;55.848;37.368;2023-04-06T15:34:43;99815.72;;;11.24;36.46
44148;BME280;29810;55.848;37.368;2023-04-06T15:37:53;99792.41;;;11.18;36.91
44148;BME280;29810;55.848;37.368;2023-04-06T15:40:59;99804.84;;;11.10;36.46
44148;BME280;29810;55.848;37.368;2023-04-06T15:44:09;99808.59;;;11.00;36.71
44148;BME280;29810;55.848;37.368;2023-04-06T15:47:16;99820.66;;;11.04;36.48
44148;BME280;29810;55.848;37.368;2023-04-06T15:50:26;99837.44;;;10.95;36.24
44148;BME280;29810;55.848;37.368;2023-04-06T15:53:33;99804.28;;;10.99;36.38
44148;BME280;29810;55.848;37.368;2023-04-06T15:56:45;99810.59;;;10.91;36.43
44148;BME280;29810;55.848;37.368;2023-04-06T15:59:52;99814.25;;;10.84;37.09
44148;BME280;29810;55.848;37.368;2023-04-06T16:03:04;99819.63;;;10.80;36.70
44148;BME280;29810;55.848;37.368;2023-04-06T16:06:14;99828.66;;;10.68;36.88
44148;BME280;29810;55.848;37.368;2023-04-06T16:09:19;99825.00;;;10.73;37.01
44148;BME280;29810;55.848;37.368;2023-04-06T16:12:28;99817.50;;;10.61;36.98
44148;BME280;29810;55.848;37.368;2023-04-06T16:15:35;99832.59;;;10.50;36.60
44148;BME280;29810;55.848;37.368;2023-04-06T16:18:45;99848.34;;;10.45;36.63
44148;BME280;29810;55.848;37.368;2023-04-06T16:21:49;99818.47;;;10.24;37.51
44148;BME280;29810;55.848;37.368;2023-04-06T16:24:58;99853.19;;;10.24;38.64
44148;BME280;29810;55.848;37.368;2023-04-06T16:28:08;99867.56;;;10.05;39.54